Terminal Aerodrome Forecast
Issued by NWS

Home | Current Version | Previous Version | Graphics & Text | Print | Product List | Glossary On
Versions: 1 2 3 4 5 6 7 8 9 10 11 12 13 14 15 16
000
FTUS43 KOAX 181720
TAFCDR
TAF
KCDR 181720Z 1818/1918 04007KT P6SM VCSH OVC009
     FM182300 33007KT P6SM VCSH SCT009 BKN015
     FM190600 01014G20KT 5SM -RA BR BKN025=

USA.gov is the U.S. government's official web portal to all federal, state and local government web resources and services.